Broadmeadows, Australia
Current Conditions -  °F | °C
As of 6:30 AM on Monday 22 Dec 2014 (Local Time) from YMEN Reporting Station
Scattered Clouds Scattered Clouds  
Wind Chill: 17°   Ceiling: Unl
Heat Index: 17°   Visibility: 6mi
Dew Point: 15°   Wind: 7mph
Humidity: 88%   Direction: 270°W
Pressure: 29.88"   Gusts: NA
Location:  37.68°S, 144.92°E
Report Text: YMEN 211930Z AUTO 27006KT 9999 // SCT012 17/15 Q1012
Loading
Personal Weather Stations






























Interactive Weather Map New forecast layout! Learn more

10-Day Weather Forecast

Advertisements
Track Severe Weather on mobile